Time;durP1;ratioP1;P1;durP2;ratioP2;P2;SDS_P1;SDS_P2;PMS_P1;PMS_P2;Temp;Humidity;BMP_temperature;BMP_pressure;BME280_temperature;BME280_humidity;BME280_pressure;Samples;Min_cycle;Max_cycle;Signal;HPM_P1;HPM_P2
2021/12/15 00:01:24;;;;;;;1.85;1.30;;;-4.60;99.90;;;;;;5052417;28;20029;-62
2021/12/15 00:03:50;;;;;;;4.60;1.50;;;-4.60;99.90;;;;;;5051429;28;20037;-62
2021/12/15 00:06:18;;;;;;;3.42;1.70;;;-4.50;99.90;;;;;;5052613;28;20111;-62
2021/12/15 00:08:47;;;;;;;3.58;1.75;;;-4.50;99.90;;;;;;5052267;28;20044;-63
2021/12/15 00:11:13;;;;;;;1.65;1.48;;;-4.50;99.90;;;;;;5052236;28;20086;-62
2021/12/15 00:13:40;;;;;;;4.30;1.90;;;-4.40;99.90;;;;;;5052255;28;20025;-62
2021/12/15 00:16:07;;;;;;;2.03;1.70;;;-4.40;99.90;;;;;;5052199;28;20021;-62
2021/12/15 00:18:33;;;;;;;3.22;1.90;;;-4.30;99.90;;;;;;5052215;28;20354;-62
2021/12/15 00:20:59;;;;;;;2.35;1.73;;;-4.20;99.90;;;;;;5052108;28;20032;-62
2021/12/15 00:23:25;;;;;;;3.72;2.10;;;-4.20;99.90;;;;;;5052062;28;20036;-62
2021/12/15 00:25:51;;;;;;;2.63;1.88;;;-4.10;99.90;;;;;;5051996;28;20017;-62
2021/12/15 00:28:17;;;;;;;3.20;1.70;;;-4.10;99.90;;;;;;5052088;28;20389;-62
2021/12/15 00:30:44;;;;;;;2.22;1.65;;;-4.00;99.90;;;;;;5051991;28;20024;-62
2021/12/15 00:33:10;;;;;;;2.63;2.17;;;-3.90;99.90;;;;;;5051928;28;20120;-62
2021/12/15 00:35:36;;;;;;;4.10;2.33;;;-3.90;99.90;;;;;;5051835;28;20388;-62
2021/12/15 00:38:06;;;;;;;3.35;2.30;;;-3.80;99.90;;;;;;5051959;28;20157;-62
2021/12/15 00:40:32;;;;;;;3.67;2.17;;;-3.70;99.90;;;;;;5051851;28;20021;-62
2021/12/15 00:42:58;;;;;;;3.88;2.47;;;-3.60;99.90;;;;;;5051996;28;20036;-62
2021/12/15 00:45:25;;;;;;;6.75;2.10;;;-3.60;99.90;;;;;;5050547;28;20104;-62
2021/12/15 00:47:51;;;;;;;3.25;1.95;;;-3.50;99.90;;;;;;5051815;28;20385;-62
2021/12/15 00:50:21;;;;;;;5.95;2.42;;;-3.40;99.90;;;;;;5051795;28;20500;-62
2021/12/15 00:52:47;;;;;;;3.58;2.40;;;-3.40;99.90;;;;;;5051822;28;20077;-62
2021/12/15 00:55:17;;;;;;;4.13;2.17;;;-3.30;99.90;;;;;;5051898;28;20048;-63
2021/12/15 00:57:44;;;;;;;4.53;2.88;;;-3.20;99.90;;;;;;5052068;28;20425;-62
2021/12/15 01:00:15;;;;;;;6.93;3.03;;;-3.20;99.90;;;;;;5051643;28;20036;-62
2021/12/15 01:02:41;;;;;;;4.68;2.58;;;-3.10;99.90;;;;;;5051553;28;20049;-63
2021/12/15 01:05:08;;;;;;;6.07;2.80;;;-3.10;99.90;;;;;;5051669;28;20021;-63
2021/12/15 01:07:35;;;;;;;6.60;3.00;;;-3.00;99.90;;;;;;5051536;28;20036;-63
2021/12/15 01:10:00;;;;;;;9.70;3.15;;;-2.90;99.90;;;;;;5051387;28;20485;-63
2021/12/15 01:20:47;;;;;;;6.35;3.63;;;-2.70;99.90;;;;;;5055726;28;20075;-62
2021/12/15 01:23:16;;;;;;;5.75;3.13;;;-2.60;99.90;;;;;;5055541;28;20060;-63
2021/12/15 01:26:00;;;;;;;12.82;3.28;;;-2.50;99.90;;;;;;5055593;28;20025;-63
2021/12/15 01:28:26;;;;;;;5.53;3.40;;;-2.50;99.90;;;;;;5055407;28;20094;-63
2021/12/15 01:30:54;;;;;;;7.97;3.67;;;-2.40;99.90;;;;;;5055159;28;20086;-63
2021/12/15 01:33:22;;;;;;;4.50;2.75;;;-2.40;99.90;;;;;;5055243;28;20391;-62
2021/12/15 01:35:50;;;;;;;7.30;3.05;;;-2.30;99.90;;;;;;5055068;28;20024;-63
2021/12/15 01:38:18;;;;;;;6.57;3.35;;;-2.20;99.90;;;;;;5055212;28;20028;-62
2021/12/15 01:40:46;;;;;;;4.60;2.90;;;-2.20;99.90;;;;;;5055223;28;20032;-63
2021/12/15 01:43:23;;;;;;;3.58;2.70;;;-2.10;99.90;;;;;;5055031;28;20044;-62
2021/12/15 01:48:39;;;;;;;5.20;2.90;;;-2.00;99.90;;;;;;5055350;28;20534;-62
2021/12/15 01:51:08;;;;;;;5.82;2.92;;;-1.90;99.90;;;;;;5054921;28;20491;-62
2021/12/15 01:53:34;;;;;;;3.28;2.92;;;-1.90;99.90;;;;;;5054979;28;20025;-62
2021/12/15 01:56:00;;;;;;;3.03;2.42;;;-1.80;99.90;;;;;;5054628;28;20500;-62
2021/12/15 01:58:26;;;;;;;4.68;2.97;;;-1.80;99.90;;;;;;5054814;28;20039;-63
2021/12/15 02:00:57;;;;;;;5.72;3.17;;;-1.70;99.90;;;;;;5054663;28;20021;-62
2021/12/15 02:03:23;;;;;;;5.65;2.50;;;-1.70;99.90;;;;;;5054697;28;20029;-62
2021/12/15 02:05:49;;;;;;;3.70;2.22;;;-1.60;99.90;;;;;;5054625;28;20028;-62
2021/12/15 02:08:15;;;;;;;2.53;2.33;;;-1.50;99.90;;;;;;5054637;28;20025;-62
2021/12/15 02:10:42;;;;;;;2.70;2.00;;;-1.50;99.90;;;;;;5054389;28;20033;-62
2021/12/15 02:13:12;;;;;;;3.78;1.90;;;-1.40;99.90;;;;;;5054632;28;20029;-63
2021/12/15 02:15:42;;;;;;;1.83;1.40;;;-1.30;99.90;;;;;;5054290;28;20400;-62
2021/12/15 02:18:11;;;;;;;3.47;1.60;;;-1.20;99.90;;;;;;5054374;28;20028;-62
2021/12/15 02:20:44;;;;;;;1.30;1.20;;;-1.10;99.90;;;;;;5054494;28;20108;-62
2021/12/15 02:23:21;;;;;;;1.30;1.20;;;-1.00;99.90;;;;;;5054336;28;20033;-63
2021/12/15 02:54:51;;;;;;;1.10;1.00;;;-0.40;99.90;;;;;;5053542;28;20527;-63
2021/12/15 02:57:17;;;;;;;2.83;1.00;;;-0.40;99.90;;;;;;5053706;28;20517;-63
2021/12/15 02:59:56;;;;;;;1.88;1.20;;;-0.30;99.90;;;;;;5053573;28;20029;-63
2021/12/15 03:03:10;;;;;;;2.28;1.38;;;-0.30;99.90;;;;;;5053687;28;20037;-63
2021/12/15 03:05:20;;;;;;;1.67;1.00;;;-0.30;99.90;;;;;;5052992;28;20059;-63
2021/12/15 03:08:05;;;;;;;1.65;1.05;;;-0.30;99.90;;;;;;5053297;28;20035;-63
2021/12/15 03:16:01;;;;;;;2.63;1.20;;;-0.20;99.90;;;;;;5053567;28;20068;-63
2021/12/15 03:18:28;;;;;;;2.35;0.95;;;-0.10;99.90;;;;;;5053328;28;20053;-63
2021/12/15 03:21:06;;;;;;;1.10;0.95;;;-0.10;99.90;;;;;;5053096;28;20025;-63
2021/12/15 03:23:50;;;;;;;2.10;1.02;;;-0.10;99.90;;;;;;5053433;28;20037;-63
2021/12/15 03:26:25;;;;;;;2.90;1.02;;;0.00;99.90;;;;;;5053295;28;20047;-63
2021/12/15 03:37:26;;;;;;;1.98;1.10;;;0.10;99.90;;;;;;5042803;28;20044;-63
2021/12/15 03:39:53;;;;;;;0.95;0.95;;;0.10;99.90;;;;;;5053163;28;20025;-63
2021/12/15 03:42:25;;;;;;;1.35;1.13;;;0.10;99.90;;;;;;5053247;28;20036;-63
2021/12/15 03:44:52;;;;;;;1.73;1.10;;;0.10;99.90;;;;;;5053131;28;20056;-63
2021/12/15 03:47:26;;;;;;;1.30;1.00;;;0.20;99.90;;;;;;5052907;28;20029;-63
2021/12/15 03:49:54;;;;;;;1.02;0.90;;;0.20;99.90;;;;;;5052738;28;20021;-63
2021/12/15 03:52:20;;;;;;;3.03;1.13;;;0.20;99.90;;;;;;5052862;28;20505;-63
2021/12/15 03:54:47;;;;;;;2.10;1.08;;;0.30;99.90;;;;;;5052891;28;20122;-63
2021/12/15 03:57:13;;;;;;;2.50;0.90;;;0.30;99.90;;;;;;5052529;28;20524;-63
2021/12/15 03:59:44;;;;;;;1.02;0.90;;;0.30;99.90;;;;;;5052487;28;20028;-63
2021/12/15 04:02:16;;;;;;;0.85;0.82;;;0.30;99.90;;;;;;5052688;28;20071;-63
2021/12/15 04:04:42;;;;;;;2.10;0.95;;;0.30;99.90;;;;;;5052370;28;20044;-63
2021/12/15 04:07:10;;;;;;;1.35;1.20;;;0.30;99.90;;;;;;5052419;28;20021;-63
2021/12/15 04:09:36;;;;;;;1.35;0.90;;;0.30;99.90;;;;;;5052398;28;20028;-63
2021/12/15 04:12:02;;;;;;;2.65;1.00;;;0.40;99.90;;;;;;5052254;28;20028;-63
2021/12/15 04:14:34;;;;;;;4.95;1.10;;;0.40;99.90;;;;;;5052256;28;20032;-63
2021/12/15 04:17:04;;;;;;;1.75;1.13;;;0.40;99.90;;;;;;5052152;28;20031;-63
2021/12/15 04:19:31;;;;;;;0.98;0.90;;;0.40;99.90;;;;;;5052198;28;20025;-63
2021/12/15 04:21:58;;;;;;;1.55;1.40;;;0.40;99.90;;;;;;5051979;28;20025;-63
2021/12/15 04:24:26;;;;;;;2.17;1.00;;;0.40;99.90;;;;;;5052353;28;20107;-63
2021/12/15 04:26:54;;;;;;;2.55;1.33;;;0.40;99.90;;;;;;5052177;28;20032;-63
2021/12/15 04:29:21;;;;;;;1.50;0.90;;;0.40;99.90;;;;;;5052150;28;20037;-63
2021/12/15 04:31:56;;;;;;;6.25;1.25;;;0.40;99.90;;;;;;5052136;28;20051;-63
2021/12/15 04:34:22;;;;;;;3.75;1.33;;;0.40;99.90;;;;;;5052020;28;20029;-63
2021/12/15 04:36:50;;;;;;;1.33;0.88;;;0.30;99.90;;;;;;5051827;28;20025;-64
2021/12/15 04:39:19;;;;;;;2.33;1.10;;;0.30;99.90;;;;;;5051862;28;20032;-64
2021/12/15 04:41:48;;;;;;;1.15;1.10;;;0.30;99.90;;;;;;5051961;28;20024;-63
2021/12/15 04:44:17;;;;;;;1.27;1.13;;;0.30;99.90;;;;;;5052102;28;20083;-63
2021/12/15 04:46:50;;;;;;;2.45;0.95;;;0.30;99.90;;;;;;5051681;28;20021;-63
2021/12/15 04:49:18;;;;;;;2.75;1.20;;;0.30;99.90;;;;;;5051404;28;20033;-63
2021/12/15 04:51:47;;;;;;;2.53;1.10;;;0.30;99.90;;;;;;5051572;28;20389;-63
2021/12/15 04:54:13;;;;;;;1.65;1.17;;;0.30;99.90;;;;;;5051743;28;20021;-63
2021/12/15 04:56:39;;;;;;;1.88;1.13;;;0.30;99.90;;;;;;5051466;28;20094;-63
2021/12/15 04:59:04;;;;;;;2.67;1.40;;;0.30;99.90;;;;;;5051608;28;20017;-63
2021/12/15 05:01:30;;;;;;;1.20;1.08;;;0.30;99.90;;;;;;5051847;28;20025;-63
2021/12/15 05:03:56;;;;;;;1.90;1.15;;;0.30;99.90;;;;;;5051456;28;20044;-63
2021/12/15 05:06:23;;;;;;;2.08;1.20;;;0.30;99.90;;;;;;5051936;28;20033;-63
2021/12/15 05:08:49;;;;;;;2.80;1.27;;;0.30;99.90;;;;;;5051873;28;20028;-63
2021/12/15 05:11:15;;;;;;;2.45;1.10;;;0.30;99.90;;;;;;5051800;28;20021;-63
2021/12/15 05:13:41;;;;;;;1.88;1.05;;;0.30;99.90;;;;;;5051701;28;20086;-63
2021/12/15 05:16:07;;;;;;;1.10;1.00;;;0.20;99.90;;;;;;5051174;28;20029;-63
2021/12/15 05:18:34;;;;;;;2.35;1.27;;;0.20;99.90;;;;;;5051543;28;20020;-63
2021/12/15 05:21:00;;;;;;;1.20;1.13;;;0.20;99.90;;;;;;5050048;28;20029;-63
2021/12/15 05:23:30;;;;;;;3.03;1.45;;;0.20;99.90;;;;;;5051188;28;20044;-63
2021/12/15 05:25:58;;;;;;;1.23;1.13;;;0.20;99.90;;;;;;5051616;28;20148;-64
2021/12/15 05:28:24;;;;;;;1.23;1.13;;;0.20;99.90;;;;;;5051392;28;20267;-63
2021/12/15 05:30:50;;;;;;;1.45;1.20;;;0.20;99.90;;;;;;5051309;28;20159;-64
2021/12/15 05:33:16;;;;;;;2.65;1.10;;;0.30;99.90;;;;;;5051473;28;20035;-63
2021/12/15 05:35:42;;;;;;;1.40;1.30;;;0.30;99.90;;;;;;5051335;28;20117;-68
2021/12/15 05:38:08;;;;;;;1.80;1.40;;;0.30;99.90;;;;;;5051177;28;20395;-67
2021/12/15 05:40:35;;;;;;;1.25;0.95;;;0.30;99.90;;;;;;5050651;28;20036;-68
2021/12/15 05:43:02;;;;;;;2.25;1.20;;;0.60;99.90;;;;;;5050488;28;20043;-68
2021/12/15 05:45:30;;;;;;;2.88;1.08;;;0.80;99.90;;;;;;5050745;28;20112;-67
2021/12/15 05:47:58;;;;;;;2.15;1.35;;;0.70;99.90;;;;;;5050306;28;20025;-71
2021/12/15 05:50:25;;;;;;;1.38;1.10;;;0.60;99.90;;;;;;5050527;28;20017;-71
2021/12/15 05:52:52;;;;;;;1.73;1.27;;;0.50;99.90;;;;;;5050294;28;20067;-70
2021/12/15 05:55:18;;;;;;;2.17;1.67;;;0.40;99.90;;;;;;5049966;28;20064;-69
2021/12/15 05:57:44;;;;;;;1.83;1.20;;;0.40;99.90;;;;;;5049358;28;20026;-69
2021/12/15 06:00:17;;;;;;;1.73;1.30;;;0.30;99.90;;;;;;5049806;28;20056;-71
2021/12/15 06:02:43;;;;;;;2.47;1.30;;;0.20;99.90;;;;;;5052857;28;20056;-72
2021/12/15 06:05:11;;;;;;;2.55;1.42;;;0.20;99.90;;;;;;5053878;28;20053;-69
2021/12/15 06:07:37;;;;;;;1.80;1.25;;;0.20;99.90;;;;;;5053603;28;20091;-70
2021/12/15 06:10:05;;;;;;;3.97;1.42;;;0.10;99.90;;;;;;5053129;28;20488;-70
2021/12/15 06:12:31;;;;;;;4.57;1.80;;;0.20;99.90;;;;;;5053900;28;20021;-70
2021/12/15 06:14:57;;;;;;;1.45;1.35;;;0.20;99.90;;;;;;5055572;28;20071;-70
2021/12/15 06:17:25;;;;;;;2.15;1.30;;;0.20;99.90;;;;;;5054221;28;20017;-68
2021/12/15 06:19:53;;;;;;;2.95;1.25;;;0.20;99.90;;;;;;5053685;28;20485;-70
2021/12/15 06:22:24;;;;;;;2.20;1.35;;;0.20;99.90;;;;;;5054026;28;20033;-67
2021/12/15 06:24:55;;;;;;;2.15;1.40;;;0.20;99.90;;;;;;5054422;28;20017;-67
2021/12/15 06:27:21;;;;;;;2.80;1.50;;;0.20;99.90;;;;;;5054299;28;20111;-66
2021/12/15 06:29:50;;;;;;;2.53;1.42;;;0.10;99.90;;;;;;5054240;28;20144;-65
2021/12/15 06:32:16;;;;;;;1.38;1.25;;;0.30;99.90;;;;;;5054691;28;20025;-65
2021/12/15 06:34:42;;;;;;;1.33;1.20;;;0.20;99.90;;;;;;5054244;28;20025;-65
2021/12/15 06:37:09;;;;;;;1.75;1.20;;;0.10;99.90;;;;;;5054371;28;20056;-67
2021/12/15 06:39:35;;;;;;;1.70;1.20;;;0.10;99.90;;;;;;5052862;28;20035;-66
2021/12/15 06:42:02;;;;;;;2.13;1.38;;;0.00;99.90;;;;;;5053812;28;20025;-65
2021/12/15 06:44:28;;;;;;;1.40;1.30;;;0.00;99.90;;;;;;5054157;28;20112;-66
2021/12/15 07:00:29;;;;;;;5.65;1.92;;;0.00;99.90;;;;;;5054018;28;20547;-66
2021/12/15 07:02:56;;;;;;;3.40;2.20;;;0.00;99.90;;;;;;5053330;28;20032;-65
2021/12/15 07:05:23;;;;;;;3.30;1.80;;;0.00;99.90;;;;;;5053655;28;20025;-65
2021/12/15 07:07:51;;;;;;;3.15;1.50;;;0.20;99.90;;;;;;5053499;28;20021;-66
2021/12/15 07:10:21;;;;;;;6.28;2.38;;;0.60;99.90;;;;;;5053267;28;20029;-66
2021/12/15 07:12:48;;;;;;;6.38;2.10;;;0.70;99.90;;;;;;5052604;28;20025;-65
2021/12/15 07:15:15;;;;;;;3.47;1.88;;;0.50;99.90;;;;;;5053056;28;20028;-65
2021/12/15 07:17:44;;;;;;;4.50;2.20;;;0.40;99.90;;;;;;5052928;28;20080;-65
2021/12/15 07:22:56;;;;;;;7.65;2.28;;;0.20;99.90;;;;;;5051358;28;20032;-65
2021/12/15 07:25:22;;;;;;;7.95;2.15;;;0.10;99.90;;;;;;5052494;28;20075;-65
2021/12/15 07:27:48;;;;;;;3.95;1.40;;;0.10;99.90;;;;;;5052593;28;20071;-63
2021/12/15 07:30:15;;;;;;;5.68;1.90;;;0.00;99.90;;;;;;5053296;28;20021;-65
2021/12/15 07:32:41;;;;;;;3.88;1.77;;;-0.10;99.90;;;;;;5053077;28;20040;-65
2021/12/15 07:35:09;;;;;;;10.27;1.92;;;-0.10;99.90;;;;;;5053211;28;20028;-65
2021/12/15 07:37:36;;;;;;;6.43;1.92;;;-0.20;99.90;;;;;;5052830;28;20067;-65
2021/12/15 07:40:06;;;;;;;4.97;1.77;;;-0.30;99.90;;;;;;5052990;28;20021;-65
2021/12/15 07:42:36;;;;;;;4.10;1.60;;;-0.30;99.90;;;;;;5053080;28;20029;-65
2021/12/15 07:45:05;;;;;;;22.20;2.85;;;-0.30;99.90;;;;;;5052991;28;20175;-66
2021/12/15 07:47:31;;;;;;;18.80;1.92;;;-0.40;99.90;;;;;;5051047;28;20032;-66
2021/12/15 07:50:00;;;;;;;13.80;2.13;;;-0.30;99.90;;;;;;5032568;28;20033;-66
2021/12/15 07:52:27;;;;;;;10.43;1.88;;;-0.30;99.90;;;;;;5036645;28;20048;-65
2021/12/15 07:54:53;;;;;;;7.50;1.90;;;-0.30;99.90;;;;;;5051381;28;20103;-65
2021/12/15 07:57:21;;;;;;;5.32;2.22;;;-0.30;99.90;;;;;;5051645;28;20037;-64
2021/12/15 07:59:47;;;;;;;16.02;3.65;;;-0.30;99.90;;;;;;5052208;28;20369;-65
2021/12/15 08:02:13;;;;;;;6.68;2.58;;;0.10;99.90;;;;;;5052081;28;20021;-65
2021/12/15 08:04:39;;;;;;;4.97;2.28;;;0.30;99.90;;;;;;5052310;28;20035;-65
2021/12/15 08:07:05;;;;;;;6.72;2.50;;;0.10;99.90;;;;;;5052411;28;20074;-65
2021/12/15 08:09:31;;;;;;;4.57;2.20;;;0.00;99.90;;;;;;5052417;28;20401;-65
2021/12/15 08:11:56;;;;;;;4.32;1.98;;;0.00;99.90;;;;;;5051764;28;20113;-65
2021/12/15 08:14:22;;;;;;;2.28;1.73;;;-0.10;99.90;;;;;;5052098;28;20031;-66
2021/12/15 08:16:49;;;;;;;2.03;1.30;;;-0.20;99.90;;;;;;5050995;28;20025;-66
2021/12/15 08:19:16;;;;;;;2.70;1.10;;;-0.20;99.90;;;;;;5052078;28;20028;-66
2021/12/15 08:21:43;;;;;;;2.15;1.20;;;-0.20;99.90;;;;;;5052433;28;20021;-66
2021/12/15 08:24:09;;;;;;;3.38;1.27;;;-0.20;99.90;;;;;;5051270;28;20033;-66
2021/12/15 08:26:36;;;;;;;1.90;1.17;;;-0.20;99.90;;;;;;5052163;28;20087;-66
2021/12/15 08:29:03;;;;;;;1.17;1.08;;;0.30;99.90;;;;;;5052284;28;20108;-66
2021/12/15 08:31:28;;;;;;;5.32;1.52;;;0.40;99.90;;;;;;5052109;28;20021;-66
2021/12/15 08:33:54;;;;;;;1.90;1.20;;;0.40;99.90;;;;;;5051875;28;20389;-66
2021/12/15 08:36:20;;;;;;;2.97;1.02;;;0.30;99.90;;;;;;5051840;28;20021;-66
2021/12/15 08:38:48;;;;;;;1.30;1.00;;;0.20;99.90;;;;;;5052076;28;20446;-66
2021/12/15 08:41:18;;;;;;;3.63;1.17;;;0.10;99.90;;;;;;5051712;28;20024;-67
2021/12/15 08:43:45;;;;;;;2.13;1.20;;;0.10;99.90;;;;;;5051998;28;20393;-67
2021/12/15 08:46:20;;;;;;;1.13;0.82;;;0.80;99.90;;;;;;5051899;28;20044;-67
2021/12/15 08:48:47;;;;;;;3.22;1.17;;;1.60;99.90;;;;;;5051793;28;20029;-67
2021/12/15 08:51:19;;;;;;;8.45;1.10;;;2.10;99.90;;;;;;5051605;28;20021;-68
2021/12/15 08:53:46;;;;;;;1.58;1.10;;;2.50;99.90;;;;;;5051698;28;20389;-67
2021/12/15 08:56:12;;;;;;;3.67;1.30;;;2.70;99.90;;;;;;5050026;28;20107;-67
2021/12/15 08:58:39;;;;;;;4.30;1.75;;;2.90;99.90;;;;;;5051928;28;20433;-65
2021/12/15 09:01:08;;;;;;;3.72;1.30;;;3.00;99.90;;;;;;5051504;28;20465;-67
2021/12/15 09:03:35;;;;;;;3.17;1.75;;;3.10;99.90;;;;;;5051719;28;20083;-68
2021/12/15 09:06:02;;;;;;;7.18;1.60;;;4.00;99.90;;;;;;5051470;28;20683;-69
2021/12/15 09:08:29;;;;;;;4.25;1.48;;;4.50;99.90;;;;;;5051350;28;20029;-68
2021/12/15 09:10:58;;;;;;;2.78;1.10;;;5.40;99.90;;;;;;5051473;28;20025;-66
2021/12/15 09:13:29;;;;;;;2.45;1.50;;;5.20;99.90;;;;;;5050176;28;20028;-65
2021/12/15 09:15:56;;;;;;;1.63;1.40;;;5.60;99.90;;;;;;5050494;28;20025;-65
2021/12/15 09:18:22;;;;;;;4.50;1.25;;;5.10;99.90;;;;;;5051347;28;20063;-66
2021/12/15 09:20:48;;;;;;;1.40;1.15;;;4.20;99.90;;;;;;5051611;28;20064;-66
2021/12/15 09:23:17;;;;;;;2.70;1.42;;;3.50;99.90;;;;;;5051350;28;20029;-66
2021/12/15 09:25:44;;;;;;;1.60;1.10;;;2.80;99.90;;;;;;5051540;28;20028;-66
2021/12/15 09:28:10;;;;;;;4.55;1.48;;;2.30;99.90;;;;;;5051284;28;20503;-66
2021/12/15 09:30:43;;;;;;;3.40;1.40;;;1.90;99.90;;;;;;5051217;28;20466;-67
2021/12/15 09:33:11;;;;;;;2.15;1.30;;;1.60;99.90;;;;;;5051284;28;20025;-66
2021/12/15 09:35:36;;;;;;;2.75;1.55;;;1.40;99.90;;;;;;5052168;28;20021;-66
2021/12/15 09:38:02;;;;;;;1.30;1.17;;;1.20;99.90;;;;;;5055103;28;20511;-66
2021/12/15 09:40:28;;;;;;;6.30;1.60;;;0.90;99.90;;;;;;5055545;28;20087;-66
2021/12/15 09:42:55;;;;;;;1.75;1.30;;;0.70;99.90;;;;;;5055395;28;20040;-66
2021/12/15 09:45:37;;;;;;;2.97;1.73;;;0.50;99.90;;;;;;5055017;28;20017;-66
2021/12/15 10:02:07;;;;;;;3.53;1.58;;;-0.30;99.90;;;;;;5054768;28;20032;-63
2021/12/15 10:18:11;;;;;;;2.40;1.25;;;-0.80;99.90;;;;;;5054781;28;20499;-63
2021/12/15 10:20:38;;;;;;;3.27;1.60;;;-0.80;99.90;;;;;;5054801;28;20111;-63
2021/12/15 10:23:07;;;;;;;3.22;1.60;;;-0.90;99.90;;;;;;5054204;28;20286;-63
2021/12/15 10:25:43;;;;;;;2.95;1.65;;;-0.90;99.90;;;;;;5054396;28;20029;-63
2021/12/15 10:28:27;;;;;;;2.35;1.58;;;-0.90;99.90;;;;;;5054437;28;20075;-63
2021/12/15 10:31:08;;;;;;;1.67;1.23;;;-0.90;99.90;;;;;;5054556;28;20032;-62
2021/12/15 10:33:36;;;;;;;3.70;1.33;;;-0.90;99.90;;;;;;5054082;28;20104;-62
2021/12/15 10:36:10;;;;;;;2.42;1.30;;;-0.90;99.90;;;;;;5053612;28;20036;-62
2021/12/15 10:38:56;;;;;;;2.38;1.38;;;-0.90;99.90;;;;;;5053971;28;20037;-62
2021/12/15 10:41:22;;;;;;;4.13;1.30;;;-1.00;99.90;;;;;;5053144;28;20021;-62
2021/12/15 10:43:57;;;;;;;1.98;1.48;;;-1.00;99.90;;;;;;5053894;28;20036;-64
2021/12/15 10:46:36;;;;;;;1.70;1.60;;;-1.10;99.90;;;;;;5053934;28;20025;-62
2021/12/15 10:49:15;;;;;;;2.67;1.83;;;-1.20;99.90;;;;;;5053164;28;20043;-63
2021/12/15 10:51:47;;;;;;;2.95;1.58;;;-1.30;99.90;;;;;;5053867;28;20027;-63
2021/12/15 10:54:31;;;;;;;6.10;2.67;;;-0.90;99.90;;;;;;5053834;28;20021;-63
2021/12/15 10:57:00;;;;;;;5.80;1.85;;;-0.50;99.90;;;;;;5052187;28;20056;-62
2021/12/15 10:59:30;;;;;;;2.75;1.90;;;-0.30;99.90;;;;;;5053130;28;20482;-62
2021/12/15 11:01:57;;;;;;;4.22;2.08;;;-0.40;99.90;;;;;;5053092;28;20037;-62
2021/12/15 11:04:37;;;;;;;3.63;2.45;;;-0.60;99.90;;;;;;5053500;28;20029;-62
2021/12/15 11:07:09;;;;;;;7.28;2.45;;;-0.80;99.90;;;;;;5053446;28;20028;-62
2021/12/15 11:09:42;;;;;;;8.68;2.10;;;-0.90;99.90;;;;;;5053800;28;20392;-62
2021/12/15 11:12:27;;;;;;;9.70;2.17;;;-0.80;99.90;;;;;;5053402;28;20139;-62
2021/12/15 11:14:57;;;;;;;6.55;2.00;;;-0.90;99.90;;;;;;5053450;28;20029;-62
2021/12/15 11:17:24;;;;;;;4.43;2.30;;;-0.90;99.90;;;;;;5053261;28;20032;-62
2021/12/15 11:19:57;;;;;;;8.60;2.15;;;-0.90;99.90;;;;;;5053325;28;20485;-62
2021/12/15 11:22:41;;;;;;;5.78;2.55;;;-0.90;99.90;;;;;;5052944;28;20102;-62
2021/12/15 11:25:35;;;;;;;6.50;2.63;;;-0.90;99.90;;;;;;5053332;28;20105;-62
2021/12/15 11:28:07;;;;;;;6.18;2.70;;;-0.90;99.90;;;;;;5052486;28;20059;-62
2021/12/15 11:30:47;;;;;;;5.15;2.60;;;-1.00;99.90;;;;;;5053082;28;20370;-62
2021/12/15 11:33:17;;;;;;;5.30;2.63;;;-1.00;99.90;;;;;;5052788;28;20056;-62
2021/12/15 11:35:51;;;;;;;7.45;2.75;;;-1.10;99.90;;;;;;5053111;28;20029;-62
2021/12/15 11:38:30;;;;;;;4.47;1.83;;;-1.10;99.90;;;;;;5052702;28;20490;-62
2021/12/15 11:40:56;;;;;;;4.53;1.52;;;-1.10;99.90;;;;;;5053008;28;20039;-62
2021/12/15 11:43:35;;;;;;;3.80;1.35;;;-1.10;99.90;;;;;;5052530;28;20127;-62
2021/12/15 11:46:04;;;;;;;3.65;0.98;;;-1.10;99.90;;;;;;5053037;28;20052;-62
2021/12/15 11:48:33;;;;;;;7.82;1.30;;;-1.00;99.90;;;;;;5052639;28;20017;-63
2021/12/15 11:51:02;;;;;;;4.68;1.15;;;-0.80;99.90;;;;;;5052644;28;20496;-62
2021/12/15 11:53:38;;;;;;;2.03;1.10;;;-0.70;99.90;;;;;;5052438;28;20032;-62
2021/12/15 11:56:16;;;;;;;4.30;1.10;;;-0.60;99.90;;;;;;5052303;28;20068;-62
2021/12/15 11:58:43;;;;;;;2.92;1.45;;;-0.40;99.90;;;;;;5051878;28;20067;-64
2021/12/15 12:01:09;;;;;;;3.95;1.48;;;0.60;99.90;;;;;;5052215;28;20059;-63
2021/12/15 12:03:36;;;;;;;5.95;1.05;;;0.60;99.90;;;;;;5052582;28;20064;-62
2021/12/15 12:06:03;;;;;;;6.88;1.60;;;0.50;99.90;;;;;;5051521;28;20078;-62
2021/12/15 12:08:29;;;;;;;4.03;1.40;;;0.30;99.90;;;;;;5052518;28;20370;-62
2021/12/15 12:10:57;;;;;;;1.95;1.20;;;0.30;99.90;;;;;;5052485;28;20024;-62
2021/12/15 12:13:27;;;;;;;6.57;1.52;;;0.30;99.90;;;;;;5052187;28;20029;-62
2021/12/15 12:15:58;;;;;;;;;;;0.40;99.90;;;;;;5051644;28;20028;-62
2021/12/15 12:18:26;;;;;;;6.50;1.52;;;0.40;99.90;;;;;;5052489;28;19912;-61
2021/12/15 12:21:00;;;;;;;9.10;2.33;;;0.40;99.90;;;;;;5052663;28;20032;-62
2021/12/15 12:23:29;;;;;;;4.57;1.02;;;0.50;99.90;;;;;;5052086;28;20171;-62
2021/12/15 12:26:04;;;;;;;5.43;1.30;;;0.50;99.90;;;;;;5052295;28;20568;-62
2021/12/15 12:28:34;;;;;;;2.40;1.10;;;0.60;99.90;;;;;;5050520;28;20036;-62
2021/12/15 12:31:13;;;;;;;2.30;1.10;;;0.70;99.90;;;;;;5052370;28;20155;-62
2021/12/15 12:33:40;;;;;;;3.58;1.30;;;0.70;99.90;;;;;;5051957;28;20033;-61
2021/12/15 12:36:13;;;;;;;8.80;1.30;;;0.80;99.90;;;;;;5052062;28;20024;-62
2021/12/15 12:38:46;;;;;;;9.15;1.15;;;0.90;99.90;;;;;;5051759;28;20017;-62
2021/12/15 12:41:16;;;;;;;4.75;1.38;;;0.90;99.90;;;;;;5052127;28;20036;-62
2021/12/15 12:43:51;;;;;;;7.78;1.50;;;1.00;99.90;;;;;;5052143;28;20492;-62
2021/12/15 12:46:33;;;;;;;3.58;1.00;;;1.00;99.90;;;;;;5052056;28;20108;-62
2021/12/15 12:49:39;;;;;;;9.55;1.42;;;1.10;99.90;;;;;;5050595;28;20036;-62
2021/12/15 13:00:27;;;;;;;2.47;1.10;;;1.10;99.90;;;;;;5051432;28;20018;-62
2021/12/15 13:03:00;;;;;;;8.07;1.23;;;1.20;99.90;;;;;;5051346;28;20082;-62
2021/12/15 13:05:29;;;;;;;4.35;1.00;;;1.20;99.90;;;;;;5051371;28;20021;-62
2021/12/15 13:07:58;;;;;;;3.95;1.30;;;1.20;99.90;;;;;;5051679;28;20043;-63
2021/12/15 13:11:01;;;;;;;3.92;1.60;;;1.30;99.90;;;;;;5051704;28;20528;-62
2021/12/15 13:13:55;;;;;;;9.60;1.50;;;1.30;99.90;;;;;;5054518;28;20043;-62
2021/12/15 13:16:44;;;;;;;5.60;1.00;;;1.30;99.90;;;;;;5054351;28;20029;-63
2021/12/15 13:19:33;;;;;;;8.57;1.40;;;1.50;99.90;;;;;;5053468;28;20048;-63
2021/12/15 13:30:53;;;;;;;4.68;1.58;;;1.60;99.90;;;;;;5055556;28;20447;-62
2021/12/15 13:33:39;;;;;;;7.85;1.75;;;1.60;99.90;;;;;;5055248;28;20139;-62
2021/12/15 13:36:21;;;;;;;12.63;6.60;;;1.70;99.90;;;;;;5055353;28;20035;-62
2021/12/15 13:39:02;;;;;;;8.40;2.53;;;1.60;99.90;;;;;;5055477;28;20449;-62
2021/12/15 13:44:22;;;;;;;7.57;2.20;;;1.50;99.90;;;;;;5055363;28;20377;-62
2021/12/15 13:46:59;;;;;;;8.82;3.50;;;1.50;99.90;;;;;;5055551;28;20021;-63
2021/12/15 13:49:42;;;;;;;8.05;1.98;;;1.50;99.90;;;;;;5055384;28;20048;-62
2021/12/15 13:52:17;;;;;;;3.20;1.00;;;1.40;99.90;;;;;;5055109;28;20366;-64
2021/12/15 13:54:46;;;;;;;8.20;1.30;;;1.40;99.90;;;;;;5055398;28;20362;-64
2021/12/15 13:57:11;;;;;;;2.17;1.13;;;1.50;99.90;;;;;;5053968;28;20041;-64
2021/12/15 13:59:45;;;;;;;3.40;2.05;;;1.60;99.90;;;;;;5053616;28;20657;-64
2021/12/15 14:02:23;;;;;;;5.25;2.38;;;1.50;99.90;;;;;;5055082;28;20032;-64
2021/12/15 14:05:03;;;;;;;10.77;5.85;;;1.50;99.90;;;;;;5054836;28;20126;-64
2021/12/15 14:07:28;;;;;;;10.38;5.25;;;1.50;99.90;;;;;;5054626;28;20024;-64
2021/12/15 14:10:17;;;;;;;3.60;2.00;;;1.50;99.90;;;;;;5054538;28;20402;-64
2021/12/15 14:12:45;;;;;;;6.38;1.25;;;1.50;99.90;;;;;;5053213;28;20033;-64
2021/12/15 14:15:35;;;;;;;8.65;5.13;;;1.50;99.90;;;;;;5054523;28;20382;-64
2021/12/15 14:18:09;;;;;;;14.10;11.03;;;1.40;99.90;;;;;;5054297;28;20385;-64
2021/12/15 14:21:15;;;;;;;4.05;2.35;;;1.50;99.90;;;;;;5054401;28;20067;-64
2021/12/15 14:23:49;;;;;;;6.15;2.67;;;1.50;99.90;;;;;;5052460;28;20079;-65
2021/12/15 14:26:19;;;;;;;6.40;1.33;;;1.50;99.90;;;;;;5054447;28;20028;-64
2021/12/15 14:28:51;;;;;;;4.25;1.08;;;1.50;99.90;;;;;;5054250;28;20025;-64
2021/12/15 14:31:31;;;;;;;3.67;2.00;;;1.50;99.90;;;;;;5054054;28;20020;-64
2021/12/15 14:34:01;;;;;;;8.67;1.60;;;1.50;99.90;;;;;;5050597;28;20124;-66
2021/12/15 14:36:30;;;;;;;10.20;1.08;;;1.50;99.90;;;;;;5053814;28;20275;-63
2021/12/15 14:39:05;;;;;;;10.43;1.25;;;1.60;99.90;;;;;;5053756;28;20029;-63
2021/12/15 14:41:34;;;;;;;6.45;1.60;;;1.60;99.90;;;;;;5053977;28;20029;-63
2021/12/15 14:44:13;;;;;;;2.83;1.10;;;1.60;99.90;;;;;;5053911;28;20105;-63
2021/12/15 14:46:40;;;;;;;4.25;1.20;;;1.60;99.90;;;;;;5053702;28;20025;-63
2021/12/15 14:49:11;;;;;;;3.20;1.15;;;1.60;99.90;;;;;;5053730;28;20036;-63
2021/12/15 14:51:40;;;;;;;3.85;1.10;;;1.60;99.90;;;;;;5053258;28;20032;-63
2021/12/15 14:54:07;;;;;;;4.82;1.55;;;1.60;99.90;;;;;;5047025;28;20095;-63
2021/12/15 14:56:45;;;;;;;4.03;1.30;;;1.60;99.90;;;;;;5052990;28;20049;-62
2021/12/15 14:59:14;;;;;;;4.18;1.15;;;1.60;99.90;;;;;;5055585;28;20020;-62
2021/12/15 15:01:40;;;;;;;4.10;1.10;;;1.60;99.90;;;;;;5065290;28;20111;-62
2021/12/15 15:04:09;;;;;;;4.88;1.02;;;1.60;99.90;;;;;;5063610;28;20040;-62
2021/12/15 15:06:35;;;;;;;3.95;1.10;;;1.60;99.90;;;;;;5058106;28;20021;-62